Time;durP1;ratioP1;P1;durP2;ratioP2;P2;SDS_P1;SDS_P2;PMS_P1;PMS_P2;Temp;Humidity;BMP_temperature;BMP_pressure;BME280_temperature;BME280_humidity;BME280_pressure;Samples;Min_cycle;Max_cycle;Signal;HPM_P1;HPM_P2
2022/11/19 00:01:14;;;;;;;0.17;0.17;;;;;;;7.57;92.63;94506.59;4302895;32;20177;-61
2022/11/19 00:03:40;;;;;;;0.07;0.07;;;;;;;7.78;91.94;94510.38;4330487;32;20454;-62
2022/11/19 00:06:09;;;;;;;0.00;0.00;;;;;;;7.50;92.61;94520.16;4369359;32;20360;-61
2022/11/19 00:08:36;;;;;;;0.10;0.10;;;;;;;7.59;93.04;94513.13;4359909;32;20295;-61
2022/11/19 00:11:04;;;;;;;0.10;0.10;;;;;;;7.37;93.46;94515.69;4366950;32;20327;-61
2022/11/19 00:13:30;;;;;;;0.43;0.40;;;;;;;7.31;93.84;94506.28;4370619;32;20415;-61
2022/11/19 00:16:01;;;;;;;0.00;0.00;;;;;;;7.28;93.83;94512.13;4375898;32;20311;-62
2022/11/19 00:18:29;;;;;;;0.10;0.10;;;;;;;7.24;94.80;94508.56;4372065;32;20281;-61
2022/11/19 00:21:01;;;;;;;0.40;0.40;;;;;;;7.27;95.38;94512.47;4370123;32;20276;-62
2022/11/19 00:23:27;;;;;;;0.00;0.00;;;;;;;7.20;95.29;94504.94;4372205;32;20280;-61
2022/11/19 00:26:12;;;;;;;0.10;0.10;;;;;;;7.14;95.29;94495.53;4376925;32;20287;-61
2022/11/19 00:28:42;;;;;;;0.10;0.10;;;;;;;7.12;95.18;94501.09;4383670;32;20291;-61
2022/11/19 00:31:12;;;;;;;0.10;0.10;;;;;;;7.20;95.85;94497.78;4378126;32;20292;-61
2022/11/19 00:33:40;;;;;;;0.37;0.30;;;;;;;7.28;95.42;94501.59;4364647;32;20330;-62
2022/11/19 00:36:11;;;;;;;0.30;0.30;;;;;;;7.26;95.20;94498.50;4367318;32;20412;-61
2022/11/19 00:38:41;;;;;;;0.00;0.00;;;;;;;6.95;96.25;94497.47;4352083;32;20289;-61
2022/11/19 00:41:07;;;;;;;0.03;0.03;;;;;;;7.12;95.99;94495.81;4357906;32;20385;-62
2022/11/19 00:43:49;;;;;;;0.20;0.20;;;;;;;7.07;96.30;94500.41;4385396;32;20273;-61
2022/11/19 00:46:28;;;;;;;0.20;0.20;;;;;;;7.15;95.78;94503.16;4377304;32;20292;-61
2022/11/19 00:48:56;;;;;;;1.10;0.43;;;;;;;7.34;95.19;94505.72;4376985;32;20307;-61
2022/11/19 00:51:24;;;;;;;0.50;0.50;;;;;;;7.02;96.47;94498.66;4366060;32;20331;-61
2022/11/19 00:53:52;;;;;;;0.10;0.10;;;;;;;7.16;95.79;94498.66;4354703;32;20276;-62
2022/11/19 00:56:20;;;;;;;0.10;0.10;;;;;;;7.30;95.40;94502.09;4373565;32;20292;-61
2022/11/19 00:58:52;;;;;;;0.07;0.07;;;;;;;7.30;95.21;94504.72;4352800;32;20350;-61
2022/11/19 01:01:20;;;;;;;0.00;0.00;;;;;;;7.27;95.15;94489.50;4348810;32;20276;-61
2022/11/19 01:03:48;;;;;;;0.00;0.00;;;;;;;7.12;95.28;94497.69;4381251;32;20283;-61
2022/11/19 01:06:17;;;;;;;0.07;0.07;;;;;;;7.18;95.60;94499.16;4369452;32;20318;-61
2022/11/19 01:08:42;;;;;;;0.10;0.10;;;;;;;7.19;95.55;94495.44;4356203;32;20295;-61
2022/11/19 01:11:19;;;;;;;0.10;0.10;;;;;;;7.14;95.20;94492.91;4366818;32;20285;-61
2022/11/19 01:13:47;;;;;;;0.37;0.37;;;;;;;7.09;96.03;94495.63;4324444;32;20263;-61
2022/11/19 01:16:23;;;;;;;0.00;0.00;;;;;;;7.07;96.07;94500.41;4343814;32;20315;-61
2022/11/19 01:18:50;;;;;;;0.10;0.10;;;;;;;7.13;95.64;94500.03;4362349;32;20280;-62
2022/11/19 01:21:20;;;;;;;0.10;0.10;;;;;;;7.18;95.38;94507.06;4388371;32;20281;-61
2022/11/19 01:23:48;;;;;;;0.10;0.10;;;;;;;7.08;95.80;94513.28;4391179;32;20329;-63
2022/11/19 01:26:15;;;;;;;0.17;0.17;;;;;;;7.01;95.96;94512.91;4334166;32;20292;-62
2022/11/19 01:28:42;;;;;;;0.20;0.20;;;;;;;7.10;95.70;94510.38;4350814;32;20297;-62
2022/11/19 01:31:16;;;;;;;0.20;0.20;;;;;;;7.06;95.71;94509.41;4350078;32;20302;-62
2022/11/19 01:33:44;;;;;;;5.40;0.37;;;;;;;7.05;96.68;94521.03;4382070;32;20299;-62
2022/11/19 01:36:12;;;;;;;0.10;0.10;;;;;;;7.09;96.36;94504.31;4364267;32;20359;-62
2022/11/19 01:38:39;;;;;;;0.50;0.50;;;;;;;7.14;95.53;94514.00;4367964;32;20292;-62
2022/11/19 01:41:07;;;;;;;0.10;0.10;;;;;;;7.12;95.33;94513.50;4347464;32;20279;-62
2022/11/19 01:43:52;;;;;;;0.20;0.20;;;;;;;7.12;95.58;94518.78;4359597;32;20268;-62
2022/11/19 01:46:34;;;;;;;0.47;0.47;;;;;;;7.14;95.74;94506.88;4329301;32;20285;-63
2022/11/19 01:49:16;;;;;;;0.73;0.40;;;;;;;7.33;94.78;94512.06;4372365;32;20352;-62
2022/11/19 01:52:02;;;;;;;0.40;0.40;;;;;;;7.20;94.82;94512.84;4362234;32;20325;-62
2022/11/19 01:54:42;;;;;;;1.07;0.53;;;;;;;7.11;94.88;94522.47;4375481;32;20292;-62
2022/11/19 01:57:14;;;;;;;0.40;0.40;;;;;;;7.28;94.90;94519.28;4378128;32;21776;-62
2022/11/19 01:59:42;;;;;;;0.20;0.20;;;;;;;7.34;95.06;94520.75;4336163;32;20342;-62
2022/11/19 02:02:09;;;;;;;0.20;0.20;;;;;;;7.23;94.65;94522.81;4370210;32;20281;-62
2022/11/19 02:04:36;;;;;;;0.43;0.43;;;;;;;7.32;94.93;94515.75;4374126;32;20276;-62
2022/11/19 02:07:03;;;;;;;0.43;0.37;;;;;;;7.31;94.53;94526.59;4366262;32;20308;-62
2022/11/19 02:09:42;;;;;;;1.10;0.63;;;;;;;7.50;93.96;94522.03;4353049;32;20348;-62
2022/11/19 02:12:45;;;;;;;0.87;0.70;;;;;;;7.37;93.73;94520.16;4359530;32;20367;-62
2022/11/19 02:15:40;;;;;;;0.23;0.23;;;;;;;7.29;94.32;94521.63;4362221;32;20290;-62
2022/11/19 02:18:33;;;;;;;1.93;0.67;;;;;;;7.36;94.01;94524.66;4372636;32;20272;-62
2022/11/19 02:21:59;;;;;;;3.83;0.83;;;;;;;7.35;94.14;94527.59;4365056;32;20298;-62
2022/11/19 02:24:53;;;;;;;0.57;0.57;;;;;;;7.21;94.07;94522.31;4341937;32;20371;-62
2022/11/19 02:27:45;;;;;;;0.10;0.10;;;;;;;7.28;94.04;94533.25;4356244;32;20277;-62
2022/11/19 02:30:15;;;;;;;0.40;0.40;;;;;;;7.25;93.43;94525.94;4357305;32;20285;-62
2022/11/19 02:33:11;;;;;;;0.23;0.23;;;;;;;7.11;94.43;94528.53;4361112;32;20295;-62
2022/11/19 02:36:03;;;;;;;3.43;0.67;;;;;;;7.13;94.34;94530.88;4363840;32;20303;-62
2022/11/19 02:38:56;;;;;;;0.20;0.20;;;;;;;7.24;94.03;94529.66;4353923;32;20280;-62
2022/11/19 02:42:14;;;;;;;1.17;0.30;;;;;;;7.12;94.17;94527.47;4359919;32;20354;-62
2022/11/19 02:45:14;;;;;;;0.30;0.30;;;;;;;7.10;94.24;94528.81;4335818;32;20360;-62
2022/11/19 02:47:42;;;;;;;0.10;0.10;;;;;;;7.22;93.87;94526.53;4364338;32;20400;-62
2022/11/19 02:50:30;;;;;;;0.27;0.20;;;;;;;7.15;94.02;94529.53;4354912;32;20309;-62
2022/11/19 02:52:57;;;;;;;0.47;0.37;;;;;;;7.31;93.62;94532.66;4373471;32;20289;-62
2022/11/19 02:55:39;;;;;;;0.93;0.27;;;;;;;7.36;92.44;94526.53;4362112;32;20334;-62
2022/11/19 03:06:41;;;;;;;0.10;0.10;;;;;;;7.24;92.71;94533.06;4335361;32;20316;-62
2022/11/19 03:09:09;;;;;;;0.10;0.10;;;;;;;7.31;92.57;94532.66;4363809;32;20363;-62
2022/11/19 03:11:34;;;;;;;0.20;0.20;;;;;;;7.30;92.40;94535.59;4384049;32;20284;-62
2022/11/19 03:17:25;;;;;;;0.13;0.13;;;;;;;7.18;92.38;94550.06;4384336;32;20211;-62
2022/11/19 03:20:20;;;;;;;0.10;0.10;;;;;;;7.21;92.39;94549.47;4354543;32;20280;-62
2022/11/19 03:23:31;;;;;;;0.00;0.00;;;;;;;7.19;92.51;94556.09;4384827;32;20380;-62
2022/11/19 03:26:12;;;;;;;0.07;0.07;;;;;;;7.14;91.81;94559.63;4290800;33;20342;-62
2022/11/19 03:28:38;;;;;;;0.33;0.33;;;;;;;7.11;92.16;94562.03;4293718;33;20362;-62
2022/11/19 03:31:06;;;;;;;0.13;0.13;;;;;;;7.09;92.23;94564.19;4336006;32;20285;-62
2022/11/19 03:33:45;;;;;;;0.13;0.13;;;;;;;6.96;92.88;94557.03;4355289;32;20295;-62
2022/11/19 03:36:23;;;;;;;0.23;0.23;;;;;;;7.23;92.01;94559.75;4346712;32;20297;-62
2022/11/19 03:38:54;;;;;;;0.10;0.10;;;;;;;7.22;92.23;94566.09;4349307;32;20276;-62
2022/11/19 03:41:23;;;;;;;0.00;0.00;;;;;;;7.07;92.12;94563.69;4371278;32;20272;-63
2022/11/19 03:44:00;;;;;;;0.20;0.20;;;;;;;7.09;92.75;94556.28;4349598;32;20293;-62
2022/11/19 03:46:32;;;;;;;0.00;0.00;;;;;;;7.04;92.56;94559.78;4312087;32;20311;-62
2022/11/19 03:49:02;;;;;;;0.10;0.10;;;;;;;7.04;92.16;94559.00;4350450;32;20299;-62
2022/11/19 03:51:42;;;;;;;0.07;0.07;;;;;;;7.01;92.05;94564.84;4382599;32;20272;-62
2022/11/19 03:54:11;;;;;;;0.33;0.33;;;;;;;6.92;92.08;94571.84;4361331;32;20288;-62
2022/11/19 03:56:43;;;;;;;0.10;0.10;;;;;;;7.16;91.85;94567.22;4348692;32;20395;-62
2022/11/19 03:59:11;;;;;;;0.77;0.30;;;;;;;7.25;91.14;94557.59;4346639;32;20277;-62
2022/11/19 04:01:39;;;;;;;0.20;0.20;;;;;;;7.35;90.93;94557.41;4359574;32;20370;-62
2022/11/19 04:06:50;;;;;;;0.30;0.30;;;;;;;7.25;90.70;94565.50;4349930;32;20330;-62
2022/11/19 04:09:16;;;;;;;0.37;0.20;;;;;;;7.28;90.68;94572.81;4325082;32;20281;-61
2022/11/19 04:11:43;;;;;;;0.00;0.00;;;;;;;7.32;90.28;94565.87;4327711;32;20293;-62
2022/11/19 04:14:10;;;;;;;0.00;0.00;;;;;;;7.34;90.75;94574.31;4337375;32;20204;-62
2022/11/19 04:16:36;;;;;;;0.20;0.20;;;;;;;7.33;90.51;94567.47;4352732;32;20334;-62
2022/11/19 04:19:06;;;;;;;0.10;0.10;;;;;;;7.16;91.62;94569.88;4342602;32;20281;-62
2022/11/19 04:21:33;;;;;;;0.07;0.07;;;;;;;7.16;92.53;94577.78;4310593;32;20325;-62
2022/11/19 04:24:00;;;;;;;0.17;0.17;;;;;;;7.06;92.47;94573.47;4320587;32;20305;-62
2022/11/19 04:26:26;;;;;;;0.10;0.10;;;;;;;7.14;91.73;94575.44;4366900;32;20307;-62
2022/11/19 04:28:55;;;;;;;0.20;0.20;;;;;;;6.95;92.26;94581.81;4346931;32;20316;-62
2022/11/19 04:31:21;;;;;;;0.00;0.00;;;;;;;7.15;92.14;94576.22;4342560;32;20293;-61
2022/11/19 04:33:51;;;;;;;0.20;0.20;;;;;;;7.04;92.60;94585.38;4346588;32;20299;-63
2022/11/19 04:36:16;;;;;;;0.00;0.00;;;;;;;7.18;91.97;94580.91;4346853;32;20189;-62
2022/11/19 04:38:43;;;;;;;0.17;0.17;;;;;;;7.16;92.08;94569.88;4351463;32;20288;-62
2022/11/19 04:41:10;;;;;;;0.17;0.17;;;;;;;7.22;91.29;94574.78;4377385;32;20329;-62
2022/11/19 04:43:37;;;;;;;0.20;0.20;;;;;;;7.05;92.22;94571.12;4344002;32;20280;-61
2022/11/19 04:46:05;;;;;;;0.10;0.10;;;;;;;7.04;92.64;94580.09;4355356;32;20337;-62
2022/11/19 04:48:35;;;;;;;0.20;0.20;;;;;;;7.19;92.81;94577.22;4360421;32;20290;-62
2022/11/19 04:51:00;;;;;;;0.00;0.00;;;;;;;7.08;93.83;94575.81;4351779;32;20322;-62
2022/11/19 04:53:26;;;;;;;0.00;0.00;;;;;;;6.94;94.33;94577.62;4334576;32;20280;-62
2022/11/19 04:55:52;;;;;;;0.00;0.00;;;;;;;7.09;94.01;94572.09;4368949;32;20193;-62
2022/11/19 04:58:17;;;;;;;0.00;0.00;;;;;;;7.02;94.00;94580.41;4336190;32;20289;-62
2022/11/19 05:00:43;;;;;;;0.00;0.00;;;;;;;6.98;94.27;94587.31;4368194;32;20185;-61
2022/11/19 05:03:10;;;;;;;0.00;0.00;;;;;;;7.03;94.82;94581.19;4374304;32;20197;-62
2022/11/19 05:05:37;;;;;;;0.20;0.20;;;;;;;7.02;94.18;94583.03;4336612;32;20347;-62
2022/11/19 05:08:14;;;;;;;0.00;0.00;;;;;;;6.90;94.25;94588.75;4352499;32;20350;-62
2022/11/19 05:10:42;;;;;;;0.10;0.10;;;;;;;6.79;95.00;94587.34;4363478;32;20380;-62
2022/11/19 05:13:08;;;;;;;0.00;0.00;;;;;;;6.98;94.68;94589.16;4373574;32;20316;-62
2022/11/19 05:15:36;;;;;;;0.07;0.07;;;;;;;6.88;94.55;94584.81;4353762;32;20288;-62
2022/11/19 05:18:03;;;;;;;0.10;0.10;;;;;;;6.95;94.42;94592.38;4351076;32;20181;-62
2022/11/19 05:20:31;;;;;;;0.07;0.07;;;;;;;6.99;94.83;94602.06;4360472;32;20284;-62
2022/11/19 05:22:57;;;;;;;0.03;0.03;;;;;;;6.84;95.02;94599.66;4365759;32;20287;-62
2022/11/19 05:25:23;;;;;;;0.00;0.00;;;;;;;6.93;95.13;94600.56;4351103;32;20341;-62
2022/11/19 05:27:48;;;;;;;0.20;0.20;;;;;;;6.77;95.55;94602.66;4368067;32;20281;-62
2022/11/19 05:30:17;;;;;;;0.20;0.20;;;;;;;6.81;96.04;94603.66;4372085;32;20188;-62
2022/11/19 05:32:44;;;;;;;0.47;0.47;;;;;;;6.95;96.57;94611.63;4335649;32;20181;-62
2022/11/19 05:35:10;;;;;;;0.03;0.03;;;;;;;6.93;96.02;94612.97;4356243;32;20277;-62
2022/11/19 05:37:37;;;;;;;0.03;0.03;;;;;;;6.94;96.09;94604.78;4359720;32;20332;-62
2022/11/19 05:40:04;;;;;;;0.03;0.03;;;;;;;7.08;95.27;94599.53;4355516;32;20338;-62
2022/11/19 05:42:31;;;;;;;0.00;0.00;;;;;;;6.93;95.67;94607.69;4341440;32;20341;-61
2022/11/19 05:44:58;;;;;;;0.00;0.00;;;;;;;6.86;96.14;94606.19;4373628;32;20288;-61
2022/11/19 05:47:25;;;;;;;0.00;0.00;;;;;;;6.89;96.75;94603.00;4354032;32;20292;-62
2022/11/19 05:49:52;;;;;;;0.30;0.30;;;;;;;6.80;97.15;94607.38;4370584;32;20285;-61
2022/11/19 05:52:18;;;;;;;0.20;0.20;;;;;;;6.89;97.08;94604.84;4368053;32;20307;-62
2022/11/19 05:54:44;;;;;;;0.10;0.10;;;;;;;6.76;97.07;94605.59;4380979;32;20321;-61
2022/11/19 05:57:11;;;;;;;0.00;0.00;;;;;;;6.86;97.77;94610.69;4367741;32;20269;-61
2022/11/19 05:59:37;;;;;;;0.20;0.20;;;;;;;6.79;97.59;94607.66;4384646;32;20200;-61
2022/11/19 06:02:05;;;;;;;0.00;0.00;;;;;;;6.83;97.90;94601.53;4360780;32;20277;-62
2022/11/19 06:04:31;;;;;;;0.10;0.10;;;;;;;6.88;97.82;94606.69;4372712;32;20269;-62
2022/11/19 06:06:57;;;;;;;0.07;0.07;;;;;;;6.92;97.37;94608.75;4338166;32;20277;-61
2022/11/19 06:09:24;;;;;;;0.10;0.10;;;;;;;6.97;97.33;94606.06;4365599;32;20326;-62
2022/11/19 06:11:51;;;;;;;1.33;0.20;;;;;;;7.03;96.90;94610.19;4369907;32;20302;-62
2022/11/19 06:14:25;;;;;;;0.27;0.27;;;;;;;7.06;96.57;94610.41;4391291;32;20299;-62
2022/11/19 06:17:02;;;;;;;0.00;0.00;;;;;;;7.10;96.14;94610.56;4372212;32;20284;-62
2022/11/19 06:19:27;;;;;;;0.10;0.10;;;;;;;6.85;96.55;94612.56;4387543;32;20276;-62
2022/11/19 06:22:05;;;;;;;0.00;0.00;;;;;;;7.11;96.61;94615.56;4375881;32;20279;-62
2022/11/19 06:24:31;;;;;;;0.00;0.00;;;;;;;7.06;96.80;94620.16;4372300;32;20197;-62
2022/11/19 06:26:57;;;;;;;0.30;0.30;;;;;;;7.08;96.62;94620.63;4347568;32;20316;-62
2022/11/19 06:29:24;;;;;;;0.13;0.13;;;;;;;6.93;97.02;94610.31;4364987;32;20228;-62
2022/11/19 06:31:49;;;;;;;0.20;0.20;;;;;;;6.86;97.24;94618.59;4354133;32;20276;-62
2022/11/19 06:34:18;;;;;;;0.20;0.20;;;;;;;6.94;97.25;94622.44;4369413;32;20310;-62
2022/11/19 06:36:44;;;;;;;0.00;0.00;;;;;;;7.06;96.47;94623.59;4358427;32;20188;-62
2022/11/19 06:39:10;;;;;;;0.10;0.10;;;;;;;7.12;96.39;94634.81;4374660;32;20354;-62
2022/11/19 06:41:37;;;;;;;0.53;0.43;;;;;;;7.02;96.27;94630.50;4372198;32;20364;-62
2022/11/19 06:44:03;;;;;;;0.00;0.00;;;;;;;6.91;96.73;94634.34;4362635;32;20288;-62
2022/11/19 06:46:30;;;;;;;0.07;0.07;;;;;;;6.92;96.80;94635.13;4373202;32;20272;-62
2022/11/19 06:48:56;;;;;;;0.00;0.00;;;;;;;6.85;97.15;94638.94;4352287;32;20308;-62
2022/11/19 06:51:23;;;;;;;0.27;0.27;;;;;;;7.02;96.73;94640.25;4373716;32;20292;-62
2022/11/19 06:53:49;;;;;;;0.03;0.03;;;;;;;7.08;96.57;94647.00;4376077;32;20277;-62
2022/11/19 06:56:15;;;;;;;0.13;0.13;;;;;;;6.99;96.05;94638.19;4366291;32;20274;-61
2022/11/19 06:58:43;;;;;;;0.00;0.00;;;;;;;7.00;95.74;94637.91;4375151;32;20196;-62
2022/11/19 07:01:09;;;;;;;0.00;0.00;;;;;;;7.02;96.36;94637.63;4360900;32;20308;-62
2022/11/19 07:03:34;;;;;;;0.00;0.00;;;;;;;6.97;96.33;94642.97;4377661;32;20285;-62
2022/11/19 07:06:11;;;;;;;0.13;0.13;;;;;;;7.08;95.97;94639.88;4372357;32;20286;-62
2022/11/19 07:08:38;;;;;;;0.10;0.10;;;;;;;7.01;96.26;94646.59;4369465;32;20266;-62
2022/11/19 07:13:57;;;;;;;0.00;0.00;;;;;;;7.12;95.40;94651.41;4364296;32;20287;-62
2022/11/19 07:16:31;;;;;;;0.10;0.10;;;;;;;7.29;95.17;94650.87;4336708;32;20313;-62
2022/11/19 07:18:59;;;;;;;0.00;0.00;;;;;;;7.26;95.13;94648.84;4358787;32;20307;-62
2022/11/19 07:21:31;;;;;;;0.13;0.13;;;;;;;7.11;95.35;94652.50;4363122;32;20283;-62
2022/11/19 07:24:00;;;;;;;0.00;0.00;;;;;;;7.18;95.61;94663.47;4358476;32;20300;-62
2022/11/19 07:26:27;;;;;;;0.00;0.00;;;;;;;7.16;94.85;94654.28;4354471;32;20276;-62
2022/11/19 07:28:53;;;;;;;0.10;0.10;;;;;;;7.20;95.16;94663.97;4361183;32;20293;-62
2022/11/19 07:31:20;;;;;;;0.00;0.00;;;;;;;7.28;95.35;94665.13;4377749;32;20276;-62
2022/11/19 07:33:46;;;;;;;0.10;0.10;;;;;;;7.48;94.85;94670.09;4354325;32;20273;-62
2022/11/19 07:36:34;;;;;;;0.10;0.10;;;;;;;7.71;93.61;94664.97;4338283;32;20336;-62
2022/11/19 07:39:00;;;;;;;0.00;0.00;;;;;;;7.70;93.97;94668.66;4364806;32;20311;-62
2022/11/19 07:44:12;;;;;;;0.20;0.20;;;;;;;7.51;94.18;94666.09;4387005;32;20352;-62
2022/11/19 07:46:42;;;;;;;4.37;0.47;;;;;;;7.59;94.22;94676.78;4344459;32;20397;-62
2022/11/19 07:49:09;;;;;;;0.20;0.20;;;;;;;7.46;94.10;94674.91;4339709;32;20351;-62
2022/11/19 07:51:36;;;;;;;0.00;0.00;;;;;;;7.26;94.93;94672.59;4382532;32;20292;-62
2022/11/19 07:54:04;;;;;;;0.10;0.10;;;;;;;7.26;95.30;94669.16;4357167;32;20277;-62
2022/11/19 07:56:31;;;;;;;0.00;0.00;;;;;;;7.32;95.03;94671.41;4375075;32;20379;-62
2022/11/19 07:59:00;;;;;;;0.10;0.10;;;;;;;7.29;94.78;94679.91;4347797;32;20276;-62
2022/11/19 08:01:27;;;;;;;0.10;0.10;;;;;;;7.30;95.27;94673.56;4360607;32;20299;-62
2022/11/19 08:03:54;;;;;;;0.00;0.00;;;;;;;7.27;95.26;94681.28;4349264;32;20276;-62
2022/11/19 08:06:20;;;;;;;0.10;0.10;;;;;;;7.30;95.45;94673.56;4369560;32;20280;-62
2022/11/19 08:08:51;;;;;;;0.47;0.23;;;;;;;7.43;95.19;94678.09;4352081;32;20327;-62
2022/11/19 08:11:18;;;;;;;0.20;0.20;;;;;;;7.41;95.37;94682.09;4370178;32;20359;-62
2022/11/19 08:13:44;;;;;;;0.20;0.20;;;;;;;7.46;94.39;94682.03;4374694;32;20304;-62
2022/11/19 08:19:09;;;;;;;0.00;0.00;;;;;;;7.37;94.62;94683.75;4357829;32;20367;-63
2022/11/19 08:21:39;;;;;;;0.20;0.20;;;;;;;7.49;94.25;94676.94;4360635;32;20306;-61
2022/11/19 08:24:07;;;;;;;0.10;0.10;;;;;;;7.61;93.54;94680.97;4352673;32;20285;-60
2022/11/19 08:26:33;;;;;;;0.07;0.07;;;;;;;7.53;93.64;94672.66;4365459;32;20296;-60
2022/11/19 08:29:04;;;;;;;1.23;0.90;;;;;;;7.54;94.03;94679.50;4353267;32;20296;-50
2022/11/19 08:31:29;;;;;;;0.27;0.27;;;;;;;8.16;99.61;94679.19;4378480;32;20192;-51
2022/11/19 08:33:56;;;;;;;1.00;0.80;;;;;;;10.58;100.00;94671.91;4370143;32;20368;-51
2022/11/19 08:36:22;;;;;;;0.03;0.03;;;;;;;10.97;100.00;94673.69;4367357;32;20204;-50
2022/11/19 08:39:01;;;;;;;1.70;0.33;;;;;;;11.56;94.06;94676.62;4347192;32;20184;-50
2022/11/19 08:44:13;;;;;;;0.70;0.70;;;;;;;12.77;84.91;94678.84;4356828;32;20227;-48
2022/11/19 08:46:39;;;;;;;0.17;0.17;;;;;;;13.29;83.93;94678.53;4363025;32;20257;-49
2022/11/19 08:49:06;;;;;;;0.10;0.10;;;;;;;13.21;78.32;94666.84;4369378;32;20212;-50
2022/11/19 08:51:33;;;;;;;0.10;0.10;;;;;;;13.30;76.46;94672.84;4365122;32;20193;-51
2022/11/19 08:54:00;;;;;;;0.50;0.50;;;;;;;13.52;73.96;94674.41;4375331;32;20188;-49
2022/11/19 08:56:26;;;;;;;0.40;0.40;;;;;;;13.69;73.88;94671.59;4367222;32;20216;-49
2022/11/19 08:58:53;;;;;;;0.37;0.37;;;;;;;13.77;80.30;94675.28;4372996;32;20219;-47
2022/11/19 09:01:20;;;;;;;0.40;0.40;;;;;;;13.86;78.49;94675.97;4366890;32;20193;-50
2022/11/19 09:03:45;;;;;;;1.23;0.77;;;;;;;14.13;82.97;94676.47;4361665;32;20200;-47
2022/11/19 09:06:12;;;;;;;2.33;0.57;;;;;;;14.37;82.87;94677.25;4369263;32;20207;-47
2022/11/19 09:08:39;;;;;;;1.03;0.63;;;;;;;14.29;83.69;94678.16;4356246;32;20279;-60
2022/11/19 09:11:14;;;;;;;0.10;0.10;;;;;;;13.44;67.79;94685.94;4357604;32;20188;-60
2022/11/19 09:13:44;;;;;;;0.17;0.17;;;;;;;11.62;70.98;94691.31;4367068;32;20203;-60
2022/11/19 09:16:12;;;;;;;0.10;0.10;;;;;;;10.59;74.92;94691.25;4351007;32;20185;-60
2022/11/19 09:18:40;;;;;;;0.30;0.30;;;;;;;10.08;77.88;94695.25;4356749;32;20377;-60
2022/11/19 09:21:10;;;;;;;0.40;0.40;;;;;;;9.74;78.61;94701.16;4371867;32;20251;-60
2022/11/19 09:23:40;;;;;;;0.10;0.10;;;;;;;9.37;80.22;94701.50;4312021;32;20201;-60
2022/11/19 09:26:08;;;;;;;0.10;0.10;;;;;;;9.26;80.37;94695.69;4287606;32;20194;-60
2022/11/19 09:28:35;;;;;;;0.00;0.00;;;;;;;8.89;82.60;94702.84;4332214;32;20228;-60
2022/11/19 09:31:13;;;;;;;0.00;0.00;;;;;;;8.81;82.96;94700.91;4363044;32;20227;-60
2022/11/19 09:33:44;;;;;;;0.10;0.10;;;;;;;8.87;81.91;94698.94;4365649;32;20345;-60
2022/11/19 09:36:11;;;;;;;0.30;0.30;;;;;;;8.82;83.81;94699.81;4366887;32;22057;-60
2022/11/19 09:38:39;;;;;;;0.20;0.20;;;;;;;8.84;83.10;94700.31;4367471;32;20259;-60
2022/11/19 09:41:19;;;;;;;0.00;0.00;;;;;;;8.61;83.77;94706.59;4326423;32;20233;-60
2022/11/19 09:44:30;;;;;;;0.13;0.13;;;;;;;8.71;83.80;94705.63;4337672;32;20201;-60
2022/11/19 09:47:29;;;;;;;0.20;0.20;;;;;;;8.52;84.89;94717.06;4316483;32;20307;-61
2022/11/19 09:50:15;;;;;;;0.20;0.20;;;;;;;8.51;84.04;94720.81;4362335;32;20300;-60
2022/11/19 09:53:04;;;;;;;0.37;0.37;;;;;;;8.58;84.15;94723.06;4351317;32;20359;-60
2022/11/19 09:55:37;;;;;;;0.00;0.00;;;;;;;8.42;84.79;94725.22;4377761;32;20295;-60
2022/11/19 09:58:11;;;;;;;0.03;0.03;;;;;;;8.41;85.01;94720.22;4364803;32;20272;-60
2022/11/19 10:00:37;;;;;;;0.30;0.30;;;;;;;8.56;85.56;94717.28;4355373;32;20188;-60
2022/11/19 10:03:13;;;;;;;0.73;0.50;;;;;;;8.67;85.25;94716.00;4367755;32;20330;-60
2022/11/19 10:06:09;;;;;;;0.03;0.03;;;;;;;8.59;84.33;94714.84;4328183;32;20238;-60
2022/11/19 10:09:01;;;;;;;0.17;0.17;;;;;;;8.69;84.23;94713.84;4351096;32;20322;-60
2022/11/19 10:11:50;;;;;;;0.00;0.00;;;;;;;8.62;84.34;94724.03;4366000;32;20288;-60
2022/11/19 10:14:46;;;;;;;0.20;0.20;;;;;;;8.59;84.00;94714.03;4369575;32;20287;-60
2022/11/19 10:17:49;;;;;;;0.20;0.20;;;;;;;8.60;84.69;94726.19;4362605;32;20276;-60
2022/11/19 10:21:03;;;;;;;0.10;0.10;;;;;;;8.68;84.58;94714.94;4358486;32;20369;-60
2022/11/19 10:24:03;;;;;;;0.37;0.37;;;;;;;8.63;84.94;94722.97;4356434;32;20292;-60
2022/11/19 10:26:34;;;;;;;0.20;0.20;;;;;;;8.77;84.50;94721.06;4337618;32;20324;-60
2022/11/19 10:29:27;;;;;;;0.00;0.00;;;;;;;8.61;84.46;94719.81;4309202;32;20388;-60
2022/11/19 10:32:09;;;;;;;0.10;0.10;;;;;;;8.69;84.45;94726.28;4354844;32;20318;-60
2022/11/19 10:34:37;;;;;;;0.00;0.00;;;;;;;8.65;85.11;94726.09;4365058;32;20355;-60
2022/11/19 10:37:26;;;;;;;0.10;0.10;;;;;;;8.76;84.59;94722.16;4387591;32;20272;-60
2022/11/19 10:40:01;;;;;;;0.13;0.13;;;;;;;8.89;85.36;94721.38;4357032;32;20288;-60
2022/11/19 10:42:40;;;;;;;0.00;0.00;;;;;;;9.00;83.38;94716.63;4372995;32;20294;-60
2022/11/19 10:45:20;;;;;;;2.70;0.37;;;;;;;8.92;84.04;94712.06;4366260;32;20203;-59
2022/11/19 10:48:24;;;;;;;0.23;0.23;;;;;;;9.00;83.74;94713.97;4373321;32;20207;-58
2022/11/19 10:50:56;;;;;;;0.77;0.30;;;;;;;9.13;82.98;94707.09;4366084;32;20227;-58
2022/11/19 10:53:35;;;;;;;0.10;0.10;;;;;;;9.23;81.89;94722.75;4368086;32;20192;-57
2022/11/19 10:56:05;;;;;;;0.50;0.50;;;;;;;8.98;81.92;94716.12;4348468;32;20354;-58
2022/11/19 10:58:41;;;;;;;0.00;0.00;;;;;;;8.81;82.38;94711.47;4383470;32;20367;-58
2022/11/19 11:01:27;;;;;;;0.10;0.10;;;;;;;8.71;82.57;94711.69;4361741;32;20290;-58
2022/11/19 11:04:18;;;;;;;0.40;0.40;;;;;;;8.85;83.27;94695.81;4353743;32;20208;-59
2022/11/19 11:07:05;;;;;;;0.20;0.20;;;;;;;8.80;82.79;94701.19;4374225;32;20285;-58
2022/11/19 11:09:41;;;;;;;0.30;0.30;;;;;;;9.17;83.54;94692.16;4376161;32;20211;-58
2022/11/19 11:15:20;;;;;;;0.47;0.30;;;;;;;9.09;81.13;94684.97;4364344;32;20191;-59
2022/11/19 11:17:59;;;;;;;0.00;0.00;;;;;;;9.16;81.52;94685.31;4382908;32;20192;-58
2022/11/19 11:20:28;;;;;;;0.00;0.00;;;;;;;9.20;81.35;94688.94;4374056;32;20187;-58
2022/11/19 11:23:04;;;;;;;0.10;0.10;;;;;;;9.31;81.32;94684.97;4377903;32;20303;-58
2022/11/19 11:25:31;;;;;;;0.13;0.13;;;;;;;9.45;80.79;94683.06;4370305;32;20263;-58
2022/11/19 11:28:32;;;;;;;0.00;0.00;;;;;;;9.38;80.39;94682.69;4357217;32;20192;-58
2022/11/19 11:31:02;;;;;;;0.63;0.33;;;;;;;9.36;81.04;94676.91;4342013;32;20184;-58
2022/11/19 11:33:52;;;;;;;0.10;0.10;;;;;;;9.40;81.59;94680.50;4371314;32;20246;-58
2022/11/19 11:36:24;;;;;;;0.47;0.13;;;;;;;9.58;81.46;94682.19;4349841;32;20185;-59
2022/11/19 11:38:53;;;;;;;0.10;0.10;;;;;;;9.68;79.75;94673.22;4337756;32;20189;-58
2022/11/19 11:41:30;;;;;;;1.90;0.57;;;;;;;9.77;80.03;94681.22;4363997;32;20230;-59
2022/11/19 11:44:18;;;;;;;0.40;0.20;;;;;;;9.78;79.63;94670.31;4382059;32;20196;-58
2022/11/19 11:46:54;;;;;;;0.10;0.10;;;;;;;9.86;79.19;94674.09;4372250;32;20200;-58
2022/11/19 11:49:24;;;;;;;0.30;0.20;;;;;;;9.73;78.15;94672.31;4360394;32;20189;-58
2022/11/19 11:52:08;;;;;;;0.30;0.30;;;;;;;9.63;79.55;94674.13;4375860;32;20211;-58
2022/11/19 11:54:59;;;;;;;0.50;0.40;;;;;;;9.76;79.98;94666.44;4354463;32;20255;-58
2022/11/19 11:57:34;;;;;;;0.10;0.10;;;;;;;9.74;79.92;94663.28;4361273;32;20264;-57
2022/11/19 12:00:24;;;;;;;0.00;0.00;;;;;;;9.63;79.22;94666.19;4364935;32;20198;-58
2022/11/19 12:03:17;;;;;;;0.10;0.10;;;;;;;9.41;79.86;94666.19;4383749;32;20189;-59
2022/11/19 12:06:02;;;;;;;0.03;0.03;;;;;;;9.16;81.68;94664.94;4337866;32;20199;-58
2022/11/19 12:09:11;;;;;;;0.20;0.20;;;;;;;9.29;81.51;94664.09;4373443;32;20184;-58
2022/11/19 12:12:07;;;;;;;0.20;0.20;;;;;;;9.10;81.68;94660.06;4376037;32;20233;-58
2022/11/19 12:15:03;;;;;;;0.20;0.20;;;;;;;8.85;83.01;94670.12;4360505;32;20207;-58
2022/11/19 12:17:53;;;;;;;0.07;0.07;;;;;;;9.25;83.07;94657.06;4364911;32;20199;-58
2022/11/19 12:21:05;;;;;;;0.10;0.10;;;;;;;9.06;82.84;94667.03;4360523;32;20185;-58
2022/11/19 12:24:08;;;;;;;0.33;0.33;;;;;;;9.13;83.17;94657.63;4333532;32;20192;-58
2022/11/19 12:27:07;;;;;;;0.23;0.23;;;;;;;9.15;81.69;94649.34;4369643;32;20187;-58
2022/11/19 12:29:42;;;;;;;0.20;0.20;;;;;;;9.40;81.52;94646.09;4371060;32;20270;-58
2022/11/19 12:32:16;;;;;;;0.63;0.63;;;;;;;9.41;81.63;94657.47;4383096;32;23111;-58
2022/11/19 12:35:07;;;;;;;0.00;0.00;;;;;;;9.30;81.31;94659.59;4376222;32;20229;-58
2022/11/19 12:38:07;;;;;;;0.00;0.00;;;;;;;9.24;81.12;94648.34;4350110;32;20217;-58
2022/11/19 12:41:00;;;;;;;0.53;0.53;;;;;;;8.96;80.87;94654.81;4384873;32;20181;-58
2022/11/19 12:44:05;;;;;;;0.20;0.20;;;;;;;8.81;81.46;94647.22;4277673;32;20282;-58